Ignacio Pérez

Scout - Gijón
14 Okt 2027
Donnerstag
Verarbeitung

Persönlichkeit

Anpassungsfähigkeit (11) Ehrgeiz (15) Kontroverse (2) Loyalität (15) Druck (13) Professionalität (5) Fairness (3) Temperament (14)

Profil

Trainerstil Demokratisch
Lizenz Kontinentale A
Entschlossenheit 11
Menschenführung 7
Motivation 11
Disziplin 13
Arbeitszufriedenheit
100%
Ermüdung
0%
Rolle Scout
Gehalt 84.7K p/W
Vertrag 14.03.2028

Leistung

Verhalten Gut
Trainingseffektivität
44%
Spielerentwicklung
30%
Verletzungsprävention
65%
Taktische Umsetzung
40%

Letzte Ereignisse

Nahm an einer Scouting-Besprechung teil 7T her
Nahm an einer Scouting-Besprechung teil 14T her
Spiel beobachtet 14T her
Spiel beobachtet 14T her
Spiel beobachtet 14T her
Spiel beobachtet 21T her
Spiel beobachtet 21T her
Spiel beobachtet 21T her

Aktuell beobachtet

47
Spieler Verein Status Fähigkeit Vertrauen Beobachtet Zuletzt beobachtet Letzte Stimme
Lucas Alcázar Castellón Aktiv 131 / 129 55% 1 01.06.2027 -
Christos Mouzakitis Hull City Aktiv 133 / 135 40% 1 29.05.2027 -
Kazunari Kita Real Sociedad Aktiv 106 / 114 40% 1 29.05.2027 -
Jofre Torrents Ajax Aktiv 122 / 137 40% 2 28.05.2027 -
Davide Bartesaghi AC Milan Aktiv 141 / 141 40% 2 28.05.2027 -
Joel McGregor Swindon Town Aktiv 101 / 108 40% 2 26.05.2027 -
Leandro Martins Benfica Aktiv 97 / 100 40% 1 23.05.2027 -
Percy Jali Free State Stars Aktiv 92 / 89 40% 1 23.05.2027 -
Kevin Vazquez Cruz Azul Aktiv 124 / 143 40% 3 22.05.2027 -
Bernardo Lima Porto Aktiv 92 / 106 40% 1 22.05.2027 -
Diego Lainez Tigres Aktiv 140 / 144 40% 4 21.05.2027 -
Ali Ahmed Norwich City Aktiv 133 / 131 40% 1 20.05.2027 -
Daniel Vernattus Metalist Aktiv 89 / 95 40% 1 19.05.2027 -
Jack Rudoni Coventry City Aktiv 140 / 138 40% 2 18.05.2027 -
Pablo Torre Mallorca Aktiv 155 / 133 40% 1 18.05.2027 -
Aimar Osasuna Aktiv 143 / 141 40% 6 17.05.2027 -
Erick Sánchez OGC Nice Aktiv 152 / 146 40% 2 16.05.2027 -
Morgan Whittaker Middlesbrough Aktiv 123 / 120 40% 3 16.05.2027 -
Andrés Martín Racing Santander Aktiv 138 / 131 40% 4 15.05.2027 -
David Larrubia Málaga Aktiv 140 / 125 40% 1 15.05.2027 -
José Pachuca Puebla Aktiv 106 / 96 40% 2 13.05.2027 -
Josh King Chelsea Aktiv 128 / 141 40% 1 13.05.2027 -
Tyrhys Dolan Espanyol Aktiv 146 / 148 40% 2 10.05.2027 -
Ozziel Herrera Tigres Aktiv 133 / 136 40% 2 07.05.2027 -
Marcel Ruiz RC Lens Aktiv 135 / 147 40% 2 03.05.2027 -
Jack McGlynn Stoke City Aktiv 137 / 123 40% 1 03.05.2027 -
Abel Ruiz Girona Aktiv 135 / 134 40% 1 02.05.2027 -
Khalis Merah Toulouse FC Aktiv 132 / 124 40% 3 30.04.2027 -
João Teixeira Porto Aktiv 118 / 126 40% 2 27.04.2027 -
Fran García Betis Aktiv 156 / 154 40% 1 26.04.2027 -
Ez Abde Girona Aktiv 159 / 146 40% 1 23.04.2027 -
Jonathan Dubasin Osasuna Aktiv 132 / 147 40% 1 21.04.2027 -
Noah Nartey Olympique Lyonnais Aktiv 123 / 129 40% 1 18.04.2027 -
Christ Inao Oulaï Fiorentina Aktiv 133 / 143 40% 2 14.04.2027 -
Lucas Høgsberg RC Strasbourg Aktiv 137 / 131 40% 1 14.04.2027 -
Keagan Tau Ajax Cape Town Aktiv 79 / 111 40% 1 09.04.2027 -
Giacomo Raspadori Atalanta Aktiv 153 / 146 40% 1 08.04.2027 -
Carlos Vicente Birmingham Aktiv 152 / 135 40% 1 06.04.2027 -
Jon Garro Real Sociedad Aktiv 92 / 87 40% 2 01.04.2027 -
Matías Gómez Granada Aktiv 102 / 114 40% 1 30.03.2027 -
Yusi Alavés Aktiv 120 / 120 40% 1 21.03.2027 -
Ernie Weaver AFC Wimbledon Aktiv 114 / 113 40% 1 21.03.2027 -
David Ozoh Derby County Aktiv 120 / 135 40% 1 19.03.2027 -
Toni Tamarit Alverca Aktiv 124 / 110 40% 1 19.03.2027 -
Cemran Dansin Orlando Pirates Aktiv 96 / 100 40% 1 18.03.2027 -
Caleb Yirenkyi Coventry City Aktiv 131 / 150 40% 1 18.03.2027 -
Richard Ledezma Guadalajara Aktiv 137 / 150 40% 1 17.03.2027 -